Time;durP1;ratioP1;P1;durP2;ratioP2;P2;SDS_P1;SDS_P2;PMS_P1;PMS_P2;Temp;Humidity;BMP_temperature;BMP_pressure;BME280_temperature;BME280_humidity;BME280_pressure;Samples;Min_cycle;Max_cycle;Signal;HPM_P1;HPM_P2
2023/05/09 00:00:15;;;;;;;17.20;9.50;;;;;;;6.08;79.11;101716.95;217214;1285;138814;-91
2023/05/09 00:05:16;;;;;;;21.00;11.50;;;;;;;6.03;79.29;101716.12;217621;1286;139443;-92
2023/05/09 00:10:17;;;;;;;19.30;10.10;;;;;;;6.00;79.61;101718.77;217248;1286;139213;-92
2023/05/09 00:15:18;;;;;;;18.60;9.20;;;;;;;5.96;79.71;101716.26;217975;1286;138572;-91
2023/05/09 00:20:19;;;;;;;21.70;11.20;;;;;;;5.92;80.12;101712.06;217397;1285;139989;-91
2023/05/09 00:25:20;;;;;;;20.20;10.20;;;;;;;5.86;79.92;101704.99;217590;1286;138723;-90
2023/05/09 00:30:20;;;;;;;21.60;11.30;;;;;;;5.82;80.14;101709.15;217064;1285;139497;-90
2023/05/09 00:35:20;;;;;;;21.10;11.10;;;;;;;5.79;80.35;101703.48;217698;1288;138877;-91
2023/05/09 00:40:21;;;;;;;20.80;10.80;;;;;;;5.74;80.61;101699.44;217224;1284;139033;-91
2023/05/09 00:45:21;;;;;;;23.80;11.30;;;;;;;5.69;80.71;101704.33;217925;1286;139490;-90
2023/05/09 00:50:23;;;;;;;19.90;11.30;;;;;;;5.65;81.18;101701.52;217284;1286;139178;-91
2023/05/09 00:55:23;;;;;;;22.80;11.30;;;;;;;5.59;81.31;101696.95;217730;1285;138726;-92
2023/05/09 01:00:24;;;;;;;21.70;10.90;;;;;;;5.53;81.26;101691.39;217052;1286;139918;-92
2023/05/09 01:05:32;;;;;;;24.00;12.50;;;;;;;5.48;81.89;101689.92;217672;1284;138701;-91
2023/05/09 01:10:39;;;;;;;19.70;11.80;;;;;;;5.43;82.59;101691.20;217450;1286;139364;-91
2023/05/09 01:15:50;;;;;;;21.70;10.80;;;;;;;5.38;83.15;101688.94;217908;1285;97858;-92
2023/05/09 01:21:07;;;;;;;24.20;12.50;;;;;;;5.31;82.84;101682.84;217373;1284;139647;-93
2023/05/09 01:26:24;;;;;;;24.70;14.00;;;;;;;5.25;83.22;101684.55;217744;1286;138627;-91
2023/05/09 01:31:25;;;;;;;22.70;12.00;;;;;;;5.20;83.23;101680.71;217236;1285;139585;-92
2023/05/09 01:36:31;;;;;;;25.40;13.90;;;;;;;5.15;83.25;101676.91;217814;1285;138681;-91
2023/05/09 01:41:36;;;;;;;27.00;13.90;;;;;;;5.10;83.27;101677.59;217263;1287;139587;-90
2023/05/09 01:46:38;;;;;;;21.40;12.10;;;;;;;5.05;83.62;101680.92;217819;1284;97851;-91
2023/05/09 01:51:40;;;;;;;23.10;12.30;;;;;;;5.00;83.89;101678.25;217381;1286;139744;-90
2023/05/09 01:56:42;;;;;;;24.60;13.90;;;;;;;4.95;83.75;101677.19;217738;1285;138662;-90
2023/05/09 02:01:44;;;;;;;23.00;13.60;;;;;;;4.89;84.15;101674.44;217111;1286;139664;-92
2023/05/09 02:06:49;;;;;;;23.80;13.00;;;;;;;4.83;84.13;101665.62;217763;1288;138767;-90
2023/05/09 02:11:50;;;;;;;27.00;14.60;;;;;;;4.78;84.31;101668.25;217249;1284;139808;-90
2023/05/09 02:16:50;;;;;;;24.80;14.30;;;;;;;4.74;84.51;101660.45;217746;1284;139817;-91
2023/05/09 02:21:50;;;;;;;26.00;14.90;;;;;;;4.69;84.44;101652.59;217390;1285;138467;-92
2023/05/09 02:26:51;;;;;;;24.60;14.10;;;;;;;4.64;84.75;101651.02;217840;1286;138553;-92
2023/05/09 02:31:52;;;;;;;24.50;13.80;;;;;;;4.59;85.11;101651.56;217326;1286;138857;-93
2023/05/09 02:36:53;;;;;;;25.60;14.20;;;;;;;4.55;85.28;101645.95;217821;1286;138702;-91
2023/05/09 02:41:53;;;;;;;25.90;13.30;;;;;;;4.51;85.46;101642.00;217414;1286;139667;-91
2023/05/09 02:46:53;;;;;;;24.80;14.80;;;;;;;4.46;85.58;101643.30;217975;1285;138684;-92
2023/05/09 02:51:54;;;;;;;25.60;13.40;;;;;;;4.44;86.03;101643.31;217517;1284;139955;-90
2023/05/09 02:56:54;;;;;;;22.80;13.00;;;;;;;4.41;85.92;101647.35;217964;1286;138741;-91
2023/05/09 03:01:55;;;;;;;25.50;14.80;;;;;;;4.37;86.14;101646.58;216961;1284;140183;-92
2023/05/09 03:06:55;;;;;;;25.00;14.40;;;;;;;4.33;86.41;101644.48;217752;1286;138885;-90
2023/05/09 03:11:55;;;;;;;25.30;13.00;;;;;;;4.29;86.58;101643.80;217065;1286;139094;-92
2023/05/09 03:16:56;;;;;;;26.90;14.10;;;;;;;4.27;87.35;101643.59;217597;1287;138850;-92
2023/05/09 03:21:56;;;;;;;24.00;14.30;;;;;;;4.23;86.83;101645.83;216979;1286;229463;-92
2023/05/09 03:26:56;;;;;;;25.90;15.00;;;;;;;4.19;86.94;101639.60;217786;1285;138574;-92
2023/05/09 03:31:57;;;;;;;27.30;14.40;;;;;;;4.16;87.17;101637.16;217173;1285;139327;-91
2023/05/09 03:36:58;;;;;;;23.80;14.70;;;;;;;4.14;87.18;101635.48;217702;1286;139470;-92
2023/05/09 03:41:58;;;;;;;27.20;15.10;;;;;;;4.13;87.77;101636.31;217391;1285;138815;-91
2023/05/09 03:46:58;;;;;;;25.30;14.60;;;;;;;4.14;87.77;101644.16;217609;1285;138743;-90
2023/05/09 03:51:59;;;;;;;24.50;14.80;;;;;;;4.16;87.89;101646.80;216986;1285;139387;-91
2023/05/09 03:56:59;;;;;;;23.80;14.50;;;;;;;4.18;88.01;101643.50;217819;1284;138573;-90
2023/05/09 04:01:59;;;;;;;25.60;14.50;;;;;;;4.21;88.33;101644.79;217172;1286;138903;-90
2023/05/09 04:07:00;;;;;;;27.00;16.40;;;;;;;4.26;88.23;101640.00;217906;1286;138689;-90
2023/05/09 04:12:00;;;;;;;29.70;16.40;;;;;;;4.31;88.53;101639.85;217426;1286;139678;-90
2023/05/09 04:17:01;;;;;;;26.50;16.10;;;;;;;4.40;88.43;101637.99;217654;1286;138988;-91
2023/05/09 04:22:01;;;;;;;27.20;16.30;;;;;;;4.46;88.49;101643.46;217324;1286;244867;-89
2023/05/09 04:27:02;;;;;;;28.60;16.00;;;;;;;4.54;88.35;101639.98;217959;1284;139638;-92
2023/05/09 04:32:03;;;;;;;31.60;16.90;;;;;;;4.59;88.05;101646.27;217017;1288;138931;-90
2023/05/09 04:37:07;;;;;;;28.20;16.00;;;;;;;4.76;88.24;101639.55;217943;1285;140226;-91
2023/05/09 04:42:08;;;;;;;27.80;16.20;;;;;;;4.90;88.05;101639.27;217372;1284;139552;-89
2023/05/09 04:47:08;;;;;;;35.80;18.80;;;;;;;4.99;87.82;101646.40;217606;1286;138912;-89
2023/05/09 04:52:09;;;;;;;51.10;19.30;;;;;;;5.13;87.50;101644.54;217245;1286;138902;-91
2023/05/09 04:57:09;;;;;;;30.80;18.00;;;;;;;5.29;87.76;101635.08;217709;1285;139222;-90
2023/05/09 05:02:09;;;;;;;34.40;17.60;;;;;;;5.45;87.40;101628.10;216869;1284;139119;-91
2023/05/09 05:07:10;;;;;;;26.90;16.80;;;;;;;5.64;87.18;101634.19;217718;1286;139539;-90
2023/05/09 05:12:10;;;;;;;27.30;16.30;;;;;;;5.83;86.45;101634.36;217427;1287;139519;-89
2023/05/09 05:17:11;;;;;;;26.80;13.90;;;;;;;6.07;85.82;101635.12;217923;1285;137849;-88
2023/05/09 05:22:11;;;;;;;24.10;14.00;;;;;;;6.40;84.95;101632.64;217490;1286;139610;-90
2023/05/09 05:27:11;;;;;;;25.50;13.00;;;;;;;6.79;84.58;101640.96;217725;1286;138837;-90
2023/05/09 05:32:12;;;;;;;20.40;11.40;;;;;;;7.33;83.76;101636.97;217272;1286;139354;-94
2023/05/09 05:37:12;;;;;;;20.30;12.10;;;;;;;8.00;82.80;101633.66;217809;1286;138710;-92
2023/05/09 05:42:13;;;;;;;20.30;9.60;;;;;;;8.74;81.59;101640.87;217386;1284;139297;-93
2023/05/09 05:47:13;;;;;;;19.10;9.70;;;;;;;9.59;79.81;101637.34;217694;1286;138957;-92
2023/05/09 05:52:14;;;;;;;19.50;8.80;;;;;;;10.47;77.65;101633.66;217457;1288;138546;-94
2023/05/09 05:57:14;;;;;;;12.70;6.80;;;;;;;11.35;75.03;101634.50;217874;1286;138710;-89
2023/05/09 06:02:16;;;;;;;13.20;6.50;;;;;;;12.12;70.01;101642.34;217377;1286;139690;-92
2023/05/09 06:07:16;;;;;;;13.60;6.90;;;;;;;12.77;68.78;101643.60;217903;1286;139090;-90
2023/05/09 06:12:17;;;;;;;13.70;6.30;;;;;;;13.45;66.18;101632.92;217208;1286;139270;-89
2023/05/09 06:17:17;;;;;;;11.00;5.70;;;;;;;13.94;63.19;101631.02;217702;1288;138817;-88
2023/05/09 06:22:17;;;;;;;13.40;6.20;;;;;;;14.29;62.00;101627.80;217563;1285;139329;-93
2023/05/09 06:27:18;;;;;;;10.80;4.80;;;;;;;14.72;60.58;101629.15;217945;1286;138139;-90
2023/05/09 06:32:18;;;;;;;15.20;5.30;;;;;;;15.06;58.19;101631.16;217409;1286;138010;-93
2023/05/09 06:37:19;;;;;;;14.10;5.60;;;;;;;15.23;55.98;101623.29;217820;1286;138588;-88
2023/05/09 06:42:19;;;;;;;12.20;6.00;;;;;;;15.33;55.19;101614.55;217248;1286;138911;-91
2023/05/09 06:47:19;;;;;;;12.30;5.50;;;;;;;15.36;54.23;101610.86;217830;1286;138716;-88
2023/05/09 06:52:20;;;;;;;11.00;5.20;;;;;;;15.30;54.75;101607.60;217448;1286;138639;-90
2023/05/09 06:57:21;;;;;;;10.00;5.30;;;;;;;15.30;54.22;101600.61;217914;1285;138154;-87
2023/05/09 07:02:21;;;;;;;10.90;4.80;;;;;;;15.22;53.63;101593.16;217478;1284;139208;-87
2023/05/09 07:07:21;;;;;;;8.40;4.90;;;;;;;15.13;53.06;101594.09;217856;1287;138319;-83
2023/05/09 07:12:22;;;;;;;9.90;4.70;;;;;;;15.00;52.02;101592.11;217172;1285;138940;-88
2023/05/09 07:17:23;;;;;;;8.60;4.20;;;;;;;14.86;51.86;101592.43;217865;1286;139556;-88
2023/05/09 07:22:23;;;;;;;8.70;4.40;;;;;;;14.79;50.95;101583.79;217475;1286;137827;-90
2023/05/09 07:27:24;;;;;;;9.70;4.40;;;;;;;14.71;50.67;101580.20;217650;1285;138138;-86
2023/05/09 07:32:26;;;;;;;8.90;3.60;;;;;;;14.64;50.26;101578.77;217120;1286;137876;-91
2023/05/09 07:37:26;;;;;;;7.50;3.40;;;;;;;14.68;49.41;101571.69;217892;1284;139463;-90
2023/05/09 07:42:27;;;;;;;8.40;3.60;;;;;;;14.60;49.41;101571.04;217401;1286;138710;-90
2023/05/09 07:47:27;;;;;;;7.70;3.50;;;;;;;14.61;50.03;101563.29;217709;1286;138159;-87
2023/05/09 07:52:27;;;;;;;8.10;3.90;;;;;;;14.73;49.44;101553.71;217526;1286;138777;-88
2023/05/09 07:57:28;;;;;;;8.00;3.30;;;;;;;14.76;47.74;101547.73;217757;1288;138095;-86
2023/05/09 08:02:28;;;;;;;6.40;2.70;;;;;;;14.78;47.33;101545.45;217407;1286;139036;-87
2023/05/09 08:07:28;;;;;;;5.20;2.30;;;;;;;14.96;46.70;101543.20;217954;1286;138222;-88
2023/05/09 08:12:29;;;;;;;10.30;3.80;;;;;;;15.19;45.54;101543.28;217169;1285;139007;-88
2023/05/09 08:17:29;;;;;;;5.30;2.80;;;;;;;15.62;45.28;101539.36;217779;1286;138139;-89
2023/05/09 08:22:29;;;;;;;6.80;3.20;;;;;;;16.15;45.95;101533.48;217247;1286;139147;-85
2023/05/09 08:27:30;;;;;;;7.00;3.50;;;;;;;16.74;44.46;101533.23;217911;1286;139403;-90
2023/05/09 08:32:30;;;;;;;7.60;2.90;;;;;;;17.32;44.30;101527.96;217361;1286;137955;-93
2023/05/09 08:37:31;;;;;;;7.60;3.20;;;;;;;17.75;42.59;101523.31;217905;1288;138085;-90
2023/05/09 08:42:32;;;;;;;8.80;3.20;;;;;;;18.07;41.58;101521.67;217203;1286;138675;-90
2023/05/09 08:47:36;;;;;;;8.70;3.10;;;;;;;18.38;41.37;101505.27;217749;1288;138723;-86
2023/05/09 08:52:37;;;;;;;7.80;3.60;;;;;;;19.16;41.11;101509.27;217239;1285;139031;-88
2023/05/09 08:57:37;;;;;;;9.40;3.10;;;;;;;19.55;39.55;101499.18;217844;1286;137693;-89
2023/05/09 09:02:41;;;;;;;7.30;3.10;;;;;;;19.96;38.37;101497.20;217177;1286;138544;-88
2023/05/09 09:07:43;;;;;;;7.70;3.60;;;;;;;20.15;37.28;101489.42;217594;1286;138260;-86
2023/05/09 09:12:43;;;;;;;9.80;3.80;;;;;;;20.47;37.72;101481.13;217079;1287;138695;-91
2023/05/09 09:17:47;;;;;;;5.50;2.70;;;;;;;20.80;36.37;101483.27;217722;1286;138344;-88
2023/05/09 09:22:51;;;;;;;9.00;3.30;;;;;;;21.05;36.41;101471.98;217356;1285;139887;-90
2023/05/09 09:27:51;;;;;;;8.70;3.50;;;;;;;21.29;36.05;101474.79;217707;1286;97947;-87
2023/05/09 09:32:51;;;;;;;6.80;3.40;;;;;;;21.52;35.89;101467.42;217380;1286;138635;-88
2023/05/09 09:38:00;;;;;;;8.30;4.10;;;;;;;21.61;35.39;101459.67;217502;1286;138425;-89
2023/05/09 09:43:00;;;;;;;8.60;3.70;;;;;;;21.81;34.63;101452.86;217369;1288;138337;-86
2023/05/09 09:48:05;;;;;;;6.90;4.10;;;;;;;22.10;34.45;101440.66;217972;1286;138027;-87
2023/05/09 09:53:06;;;;;;;11.50;3.70;;;;;;;22.39;33.73;101437.42;217416;1286;139631;-87
2023/05/09 09:58:16;;;;;;;8.90;3.40;;;;;;;22.19;32.99;101439.94;217891;1288;97973;-93
2023/05/09 10:03:16;;;;;;;8.40;2.90;;;;;;;22.13;33.30;101428.18;217312;1288;138204;-94
2023/05/09 10:08:17;;;;;;;7.00;3.10;;;;;;;22.36;32.27;101417.70;217440;1286;138612;-90
2023/05/09 10:13:17;;;;;;;17.60;4.30;;;;;;;22.37;32.22;101412.38;217351;1286;139465;-91
2023/05/09 10:18:21;;;;;;;6.60;2.90;;;;;;;22.56;32.47;101407.16;217863;1286;138836;-92
2023/05/09 10:23:23;;;;;;;8.90;2.90;;;;;;;23.16;32.03;101396.70;217154;1286;139018;-88
2023/05/09 10:28:30;;;;;;;9.50;3.90;;;;;;;23.41;31.51;101391.08;218115;1285;97954;-92
2023/05/09 10:33:36;;;;;;;11.30;3.00;;;;;;;23.50;31.08;101382.98;217130;1288;138285;-90
2023/05/09 10:38:38;;;;;;;6.80;3.20;;;;;;;23.37;31.26;101371.43;217789;1288;138031;-94
2023/05/09 10:43:38;;;;;;;9.40;3.00;;;;;;;23.75;31.62;101366.40;217058;1286;138266;-90
2023/05/09 10:48:40;;;;;;;13.90;3.90;;;;;;;24.04;30.80;101360.66;217682;1288;138980;-90
2023/05/09 10:53:45;;;;;;;19.00;3.90;;;;;;;23.78;30.74;101357.45;217458;1284;138316;-89
2023/05/09 10:58:46;;;;;;;11.10;3.20;;;;;;;23.66;30.39;101349.53;217823;1288;139685;-88
2023/05/09 11:03:55;;;;;;;10.00;2.60;;;;;;;24.06;30.38;101341.88;217266;1286;138688;-88
2023/05/09 11:08:55;;;;;;;8.80;2.80;;;;;;;23.90;28.80;101348.03;217630;1288;139013;-91
2023/05/09 11:13:57;;;;;;;8.80;3.00;;;;;;;23.71;29.07;101341.28;217402;1286;138211;-86
2023/05/09 11:18:57;;;;;;;6.60;2.70;;;;;;;23.55;28.69;101326.63;217339;1286;138487;-88
2023/05/09 11:24:15;;;;;;;10.10;2.80;;;;;;;23.38;29.33;101321.30;217813;1286;139016;-89
2023/05/09 11:29:16;;;;;;;6.00;2.80;;;;;;;23.41;29.48;101310.89;217271;1286;138374;-91
2023/05/09 11:34:19;;;;;;;9.30;3.10;;;;;;;23.46;29.67;101299.75;217888;1286;97974;-90
2023/05/09 11:39:24;;;;;;;9.00;2.70;;;;;;;23.61;29.72;101296.52;217296;1287;138249;-90
2023/05/09 11:44:26;;;;;;;8.60;3.00;;;;;;;23.66;29.21;101292.84;217820;1288;138408;-94
2023/05/09 11:49:27;;;;;;;7.90;3.90;;;;;;;23.62;29.28;101289.18;217083;1286;138445;-90
2023/05/09 11:54:27;;;;;;;7.00;2.90;;;;;;;23.04;28.74;101269.46;217677;1288;138426;-89
2023/05/09 11:59:27;;;;;;;5.90;2.60;;;;;;;22.61;28.99;101259.47;217133;1286;138158;-90
2023/05/09 12:04:30;;;;;;;6.50;2.60;;;;;;;22.63;29.36;101244.76;218017;1284;97834;-89
2023/05/09 12:09:34;;;;;;;6.60;2.80;;;;;;;22.70;29.23;101241.51;217177;1286;138020;-90
2023/05/09 12:14:34;;;;;;;8.10;2.80;;;;;;;22.53;29.73;101240.09;217888;1286;137842;-90
2023/05/09 12:19:35;;;;;;;9.20;3.10;;;;;;;22.62;29.98;101232.41;217307;1288;138964;-93
2023/05/09 12:24:36;;;;;;;16.80;3.70;;;;;;;22.72;29.73;101223.17;217362;1287;138656;-89
2023/05/09 12:29:39;;;;;;;7.50;2.90;;;;;;;22.79;29.22;101213.20;217366;1287;139049;-93
2023/05/09 12:34:41;;;;;;;4.80;2.30;;;;;;;22.78;29.39;101203.69;217525;1287;97864;-89
2023/05/09 12:39:41;;;;;;;9.70;2.60;;;;;;;22.64;28.90;101199.02;217277;1286;137624;-90
2023/05/09 12:44:48;;;;;;;5.70;2.60;;;;;;;22.35;29.59;101201.73;217930;1288;137960;-88
2023/05/09 12:49:49;;;;;;;9.60;2.20;;;;;;;22.10;29.38;101194.23;217354;1287;138870;-90
2023/05/09 12:54:52;;;;;;;7.00;2.80;;;;;;;21.84;29.04;101174.67;217537;1287;138372;-90
2023/05/09 13:00:23;;;;;;;9.90;2.80;;;;;;;21.70;29.70;101175.24;217168;1288;138499;-90
2023/05/09 13:05:24;;;;;;;4.90;2.40;;;;;;;21.48;29.45;101169.09;217623;1289;138635;-89
2023/05/09 13:10:27;;;;;;;7.80;2.20;;;;;;;21.37;29.49;101161.64;217420;1285;138308;-89
2023/05/09 13:15:28;;;;;;;7.20;2.40;;;;;;;21.42;29.81;101153.03;217524;1289;138098;-88
2023/05/09 13:20:40;;;;;;;8.50;2.30;;;;;;;21.48;30.00;101141.70;217023;1286;139856;-92
2023/05/09 13:25:40;;;;;;;7.10;2.40;;;;;;;21.53;30.45;101136.46;217554;1289;138130;-89
2023/05/09 13:30:41;;;;;;;11.20;3.50;;;;;;;21.57;30.26;101130.04;217278;1287;139226;-90
2023/05/09 13:35:41;;;;;;;11.20;2.80;;;;;;;21.52;29.34;101128.25;217803;1288;138458;-89
2023/05/09 13:40:41;;;;;;;7.90;2.20;;;;;;;21.44;29.96;101121.05;217169;1286;138595;-89
2023/05/09 13:45:42;;;;;;;9.20;2.70;;;;;;;21.42;29.47;101108.80;218041;1286;98069;-91
2023/05/09 13:50:42;;;;;;;22.60;3.30;;;;;;;21.32;29.78;101103.10;217398;1286;138031;-90
2023/05/09 13:55:44;;;;;;;4.60;2.20;;;;;;;21.13;29.32;101096.23;217955;1286;138496;-90
2023/05/09 14:00:44;;;;;;;8.20;2.40;;;;;;;21.02;30.37;101090.06;217182;1286;138622;-88
2023/05/09 14:05:45;;;;;;;7.30;2.40;;;;;;;21.10;30.55;101076.77;217650;1288;137982;-91
2023/05/09 14:10:46;;;;;;;6.70;2.40;;;;;;;20.97;30.37;101074.59;217354;1288;138308;-88
2023/05/09 14:15:47;;;;;;;7.40;2.20;;;;;;;20.89;30.15;101056.17;217746;1286;97949;-87
2023/05/09 14:20:47;;;;;;;8.50;2.90;;;;;;;20.84;30.03;101040.04;217114;1286;139038;-88
2023/05/09 14:25:49;;;;;;;6.40;2.40;;;;;;;20.79;30.53;101042.06;217453;1288;138402;-88
2023/05/09 14:30:49;;;;;;;8.10;2.50;;;;;;;20.64;30.47;101035.02;217364;1286;138650;-88
2023/05/09 14:35:50;;;;;;;7.30;2.30;;;;;;;20.39;30.81;101024.20;217855;1285;138121;-90
2023/05/09 14:40:50;;;;;;;8.90;2.80;;;;;;;20.48;31.22;101019.77;217150;1286;139459;-90
2023/05/09 14:45:50;;;;;;;5.70;2.70;;;;;;;20.32;30.51;101014.10;217863;1286;97866;-90
2023/05/09 14:50:55;;;;;;;6.00;2.70;;;;;;;20.10;31.29;101001.11;217294;1288;137861;-89
2023/05/09 14:55:56;;;;;;;10.20;3.00;;;;;;;20.01;30.93;100999.17;217708;1285;138495;-91
2023/05/09 15:00:56;;;;;;;8.80;2.70;;;;;;;19.79;30.91;100996.13;217414;1286;139603;-87
2023/05/09 15:05:57;;;;;;;5.10;2.20;;;;;;;19.60;30.80;100984.33;217602;1285;138051;-92
2023/05/09 15:10:58;;;;;;;7.90;2.20;;;;;;;19.47;30.90;100979.05;217232;1288;138561;-89
2023/05/09 15:15:58;;;;;;;6.60;2.10;;;;;;;19.34;31.28;100974.72;217966;1288;97905;-92
2023/05/09 15:20:59;;;;;;;8.70;2.40;;;;;;;19.29;31.65;100967.61;217277;1286;138726;-87
2023/05/09 15:26:00;;;;;;;6.60;2.20;;;;;;;19.17;31.35;100959.58;217511;1288;138655;-89
2023/05/09 15:31:02;;;;;;;6.80;2.20;;;;;;;19.08;31.52;100955.80;217323;1284;138826;-89
2023/05/09 15:36:03;;;;;;;6.80;2.50;;;;;;;19.06;31.84;100953.52;217974;1285;138031;-91
2023/05/09 15:41:03;;;;;;;6.10;2.30;;;;;;;18.95;31.94;100948.10;217304;1285;138497;-91
2023/05/09 15:46:04;;;;;;;11.10;2.60;;;;;;;18.87;32.11;100943.59;217949;1286;97951;-88
2023/05/09 15:51:04;;;;;;;7.00;2.60;;;;;;;18.80;32.15;100937.48;217405;1288;137976;-88
2023/05/09 15:56:05;;;;;;;7.30;2.50;;;;;;;18.60;31.70;100930.84;217569;1286;138246;-87
2023/05/09 16:01:06;;;;;;;5.50;2.20;;;;;;;18.40;32.17;100924.17;217228;1286;139643;-90
2023/05/09 16:06:07;;;;;;;5.90;2.30;;;;;;;18.30;32.35;100919.90;217639;1288;137980;-89
2023/05/09 16:11:09;;;;;;;4.70;2.00;;;;;;;18.16;32.10;100913.69;217063;1285;138196;-93
2023/05/09 16:16:09;;;;;;;6.10;2.30;;;;;;;17.98;32.09;100901.65;217828;1285;97944;-88
2023/05/09 16:21:09;;;;;;;6.30;2.40;;;;;;;17.86;32.02;100898.30;217069;1286;286821;-93
2023/05/09 16:26:10;;;;;;;7.80;2.70;;;;;;;17.72;32.55;100892.88;217650;1285;138045;-89
2023/05/09 16:31:10;;;;;;;8.30;2.50;;;;;;;17.62;32.93;100884.54;217049;1286;138659;-87
2023/05/09 16:36:11;;;;;;;6.50;2.60;;;;;;;17.53;33.05;100879.48;217541;1288;138369;-88
2023/05/09 16:41:12;;;;;;;9.00;2.50;;;;;;;17.43;33.20;100877.27;217191;1286;138653;-92
2023/05/09 16:46:13;;;;;;;6.30;2.40;;;;;;;17.33;33.66;100870.34;217708;1288;97938;-88
2023/05/09 16:51:13;;;;;;;8.00;2.50;;;;;;;17.23;33.74;100864.06;217102;1286;139159;-87
2023/05/09 16:56:13;;;;;;;9.50;3.00;;;;;;;17.12;33.54;100858.92;217766;1288;138309;-89
2023/05/09 17:01:14;;;;;;;7.80;3.10;;;;;;;17.00;33.87;100848.45;217120;1285;138453;-89
2023/05/09 17:06:14;;;;;;;7.70;2.80;;;;;;;16.89;34.43;100847.52;217861;1285;137990;-89
2023/05/09 17:11:15;;;;;;;12.70;4.00;;;;;;;16.81;34.26;100835.42;217405;1286;138242;-90
2023/05/09 17:16:15;;;;;;;6.60;2.00;;;;;;;16.74;34.33;100835.08;217983;1286;97922;-87
2023/05/09 17:21:16;;;;;;;10.60;3.00;;;;;;;16.64;34.69;100830.63;217428;1284;138948;-93
2023/05/09 17:26:16;;;;;;;8.40;2.30;;;;;;;16.53;34.92;100825.22;217821;1284;138700;-92
2023/05/09 17:31:17;;;;;;;4.20;2.00;;;;;;;16.44;35.28;100822.59;217064;1286;138713;-88
2023/05/09 17:36:17;;;;;;;6.20;3.20;;;;;;;16.33;35.15;100820.48;217694;1284;138432;-87
2023/05/09 17:41:18;;;;;;;6.60;2.80;;;;;;;16.23;35.47;100821.80;217380;1285;138210;-88
2023/05/09 17:46:18;;;;;;;10.80;2.70;;;;;;;16.13;35.72;100820.20;217794;1286;97922;-90
2023/05/09 17:51:19;;;;;;;7.90;3.40;;;;;;;16.03;35.49;100829.61;217209;1285;137993;-90
2023/05/09 17:56:21;;;;;;;5.60;2.40;;;;;;;15.92;35.87;100822.84;217633;1284;139063;-89
2023/05/09 18:01:22;;;;;;;7.50;2.50;;;;;;;15.81;36.22;100823.92;217340;1288;138808;-89
2023/05/09 18:06:22;;;;;;;7.40;2.50;;;;;;;15.69;36.75;100819.05;217910;1286;138138;-90
2023/05/09 18:11:23;;;;;;;5.90;2.40;;;;;;;15.57;36.81;100825.57;217392;1285;139438;-87
2023/05/09 18:16:27;;;;;;;12.00;3.00;;;;;;;15.45;37.00;100827.52;217702;1286;97938;-88
2023/05/09 18:21:28;;;;;;;8.00;3.00;;;;;;;15.32;37.24;100826.65;217310;1285;139299;-89
2023/05/09 18:26:28;;;;;;;7.20;2.90;;;;;;;15.19;37.49;100818.34;217878;1286;138790;-87
2023/05/09 18:31:30;;;;;;;8.90;2.70;;;;;;;15.04;37.66;100821.14;217280;1285;138139;-87
2023/05/09 18:36:30;;;;;;;11.10;2.80;;;;;;;14.91;37.86;100822.97;217767;1284;138776;-89
2023/05/09 18:41:32;;;;;;;9.60;3.10;;;;;;;14.77;38.33;100826.91;217102;1286;139212;-85
2023/05/09 18:46:33;;;;;;;9.40;3.40;;;;;;;14.64;38.28;100829.53;217741;1284;98061;-84
2023/05/09 18:51:35;;;;;;;7.20;2.80;;;;;;;14.53;38.67;100833.46;217224;1288;138237;-85
2023/05/09 18:56:38;;;;;;;10.00;2.90;;;;;;;14.41;38.84;100839.85;217699;1286;138836;-87
2023/05/09 19:01:40;;;;;;;11.90;3.40;;;;;;;14.28;39.21;100839.75;217403;1286;138806;-90
2023/05/09 19:06:41;;;;;;;7.30;3.80;;;;;;;14.15;39.51;100835.27;217850;1286;139797;-92
2023/05/09 19:11:42;;;;;;;9.30;3.20;;;;;;;14.04;39.99;100834.96;217255;1285;139029;-89
2023/05/09 19:16:42;;;;;;;8.00;3.10;;;;;;;13.92;40.33;100837.14;217808;1284;138998;-86
2023/05/09 19:21:43;;;;;;;7.50;3.10;;;;;;;13.79;40.56;100834.16;217456;1284;138820;-89
2023/05/09 19:26:43;;;;;;;10.70;3.30;;;;;;;13.68;40.69;100836.16;217762;1286;138022;-88
2023/05/09 19:31:44;;;;;;;6.50;3.40;;;;;;;13.56;41.04;100834.36;217248;1286;138902;-90
2023/05/09 19:36:44;;;;;;;10.20;3.70;;;;;;;13.44;41.48;100834.14;217867;1285;138006;-89
2023/05/09 19:41:45;;;;;;;10.10;4.40;;;;;;;13.31;41.96;100830.58;217410;1285;138574;-88
2023/05/09 19:46:47;;;;;;;12.70;5.00;;;;;;;13.19;42.22;100828.38;217819;1286;139301;-89
2023/05/09 19:51:49;;;;;;;12.60;4.90;;;;;;;13.05;42.90;100829.77;217541;1286;138812;-87
2023/05/09 19:56:49;;;;;;;14.40;5.00;;;;;;;12.90;43.37;100831.29;217822;1286;139012;-90
2023/05/09 20:01:50;;;;;;;10.60;4.10;;;;;;;12.78;43.80;100828.64;217412;1285;138350;-85
2023/05/09 20:06:50;;;;;;;8.70;4.20;;;;;;;12.67;44.27;100831.79;217590;1286;138478;-89
2023/05/09 20:11:51;;;;;;;9.40;3.90;;;;;;;12.53;44.83;100825.27;217284;1285;139681;-87
2023/05/09 20:16:51;;;;;;;8.90;3.60;;;;;;;12.40;45.29;100824.27;217798;1286;138952;-87
2023/05/09 20:21:52;;;;;;;12.80;4.90;;;;;;;12.25;45.82;100819.47;217427;1286;139206;-90
2023/05/09 20:26:54;;;;;;;13.10;4.80;;;;;;;12.12;46.25;100818.45;217934;1286;138060;-88
2023/05/09 20:31:54;;;;;;;13.90;4.60;;;;;;;11.97;46.56;100817.80;217232;1285;138208;-85
2023/05/09 20:36:54;;;;;;;11.40;4.70;;;;;;;11.80;47.06;100812.97;217957;1286;138163;-89
2023/05/09 20:41:57;;;;;;;13.70;5.20;;;;;;;11.65;47.51;100804.27;217188;1284;138940;-85
2023/05/09 20:46:58;;;;;;;15.80;6.50;;;;;;;11.52;47.96;100809.26;217915;1287;139531;-86
2023/05/09 20:51:58;;;;;;;12.80;5.20;;;;;;;11.43;48.11;100809.77;217557;1287;139013;-86
2023/05/09 20:56:59;;;;;;;15.40;5.90;;;;;;;11.35;48.59;100804.38;217704;1284;137994;-84
2023/05/09 21:01:59;;;;;;;12.20;4.90;;;;;;;11.28;48.67;100803.81;217310;1286;139965;-86
2023/05/09 21:07:00;;;;;;;11.90;5.40;;;;;;;11.23;48.81;100797.67;217964;1285;138248;-89
2023/05/09 21:12:03;;;;;;;11.90;4.90;;;;;;;11.20;49.20;100793.87;217169;1286;139165;-87
2023/05/09 21:17:03;;;;;;;12.90;5.20;;;;;;;11.18;49.64;100790.45;217769;1285;138766;-88
2023/05/09 21:22:04;;;;;;;12.60;5.10;;;;;;;11.17;49.36;100789.80;217379;1285;138608;-88
2023/05/09 21:27:05;;;;;;;11.70;4.80;;;;;;;11.12;49.78;100784.85;217980;1284;138283;-84
2023/05/09 21:32:05;;;;;;;10.00;4.20;;;;;;;11.10;49.89;100783.72;217145;1286;139314;-85
2023/05/09 21:37:05;;;;;;;10.90;4.30;;;;;;;11.08;49.92;100780.55;217884;1286;138207;-87
2023/05/09 21:42:06;;;;;;;9.70;3.90;;;;;;;11.05;50.12;100772.78;217177;1286;139146;-84
2023/05/09 21:47:07;;;;;;;10.10;4.40;;;;;;;11.03;50.36;100772.06;217945;1284;139063;-86
2023/05/09 21:52:07;;;;;;;11.90;4.90;;;;;;;11.01;50.77;100773.75;217397;1286;139950;-87
2023/05/09 21:57:07;;;;;;;13.10;5.20;;;;;;;10.98;51.12;100770.08;217809;1285;139700;-86
2023/05/09 22:02:08;;;;;;;12.80;5.30;;;;;;;10.94;50.89;100769.95;217298;1284;138952;-88
2023/05/09 22:07:08;;;;;;;10.40;4.80;;;;;;;10.91;51.14;100765.20;217604;1287;138843;-84
2023/05/09 22:12:08;;;;;;;9.60;4.70;;;;;;;10.89;51.70;100766.23;217312;1288;139049;-85
2023/05/09 22:17:09;;;;;;;12.80;5.20;;;;;;;10.85;51.76;100765.41;217927;1286;138052;-86
2023/05/09 22:22:10;;;;;;;12.70;6.40;;;;;;;10.81;52.16;100762.98;217577;1288;138568;-86
2023/05/09 22:27:11;;;;;;;12.80;4.70;;;;;;;10.79;52.06;100758.77;217885;1286;138038;-87
2023/05/09 22:32:13;;;;;;;11.50;5.20;;;;;;;10.76;52.48;100755.67;217250;1285;139089;-87
2023/05/09 22:37:13;;;;;;;10.50;5.20;;;;;;;10.72;52.63;100750.51;217540;1288;138199;-88
2023/05/09 22:42:14;;;;;;;11.70;5.80;;;;;;;10.67;53.06;100751.13;217253;1286;139510;-86